sensor_id;sensor_type;location;lat;lon;timestamp;pressure;altitude;pressure_sealevel;temperature;humidity
28456;BME280;15682;56.742;38.866;2023-04-25T00:00:45;99360.0;;;11.4;52.1
28456;BME280;15682;56.742;38.866;2023-04-25T00:02:45;99360.0;;;11.4;52.1
28456;BME280;15682;56.742;38.866;2023-04-25T00:04:45;99360.0;;;11.3;52.1
28456;BME280;15682;56.742;38.866;2023-04-25T00:06:45;99360.0;;;11.2;52.6
28456;BME280;15682;56.742;38.866;2023-04-25T00:08:45;99360.0;;;11.1;52.6
28456;BME280;15682;56.742;38.866;2023-04-25T00:10:46;99360.0;;;11.1;52.7
28456;BME280;15682;56.742;38.866;2023-04-25T00:12:46;99360.0;;;11.1;52.7
28456;BME280;15682;56.742;38.866;2023-04-25T00:14:46;99360.0;;;11.1;52.7
28456;BME280;15682;56.742;38.866;2023-04-25T00:16:46;99360.0;;;11.1;53.3
28456;BME280;15682;56.742;38.866;2023-04-25T00:18:46;99360.0;;;11.1;53.3
28456;BME280;15682;56.742;38.866;2023-04-25T00:20:47;99360.0;;;11.1;53.3
28456;BME280;15682;56.742;38.866;2023-04-25T00:22:47;99360.0;;;11.0;53.3
28456;BME280;15682;56.742;38.866;2023-04-25T00:24:47;99360.0;;;11.0;53.9
28456;BME280;15682;56.742;38.866;2023-04-25T00:26:47;99370.0;;;11.0;54.0
28456;BME280;15682;56.742;38.866;2023-04-25T00:28:47;99370.0;;;10.9;54.0
28456;BME280;15682;56.742;38.866;2023-04-25T00:30:47;99370.0;;;10.9;54.0
28456;BME280;15682;56.742;38.866;2023-04-25T00:32:47;99370.0;;;10.9;54.0
28456;BME280;15682;56.742;38.866;2023-04-25T00:34:48;99370.0;;;10.9;54.5
28456;BME280;15682;56.742;38.866;2023-04-25T00:36:48;99370.0;;;10.9;54.3
28456;BME280;15682;56.742;38.866;2023-04-25T00:38:48;99370.0;;;10.9;54.3
28456;BME280;15682;56.742;38.866;2023-04-25T00:40:48;99370.0;;;10.8;55.1
28456;BME280;15682;56.742;38.866;2023-04-25T00:42:49;99370.0;;;10.8;54.4
28456;BME280;15682;56.742;38.866;2023-04-25T00:44:49;99370.0;;;10.7;55.3
28456;BME280;15682;56.742;38.866;2023-04-25T00:46:49;99380.0;;;10.7;54.8
28456;BME280;15682;56.742;38.866;2023-04-25T00:48:49;99380.0;;;10.7;55.5
28456;BME280;15682;56.742;38.866;2023-04-25T00:50:52;99380.0;;;10.6;55.5
28456;BME280;15682;56.742;38.866;2023-04-25T00:52:49;99380.0;;;10.6;55.5
28456;BME280;15682;56.742;38.866;2023-04-25T00:54:49;99380.0;;;10.6;55.5
28456;BME280;15682;56.742;38.866;2023-04-25T00:56:50;99380.0;;;10.5;55.7
28456;BME280;15682;56.742;38.866;2023-04-25T00:58:50;99380.0;;;10.5;56.1
28456;BME280;15682;56.742;38.866;2023-04-25T01:00:51;99380.0;;;10.5;56.1
28456;BME280;15682;56.742;38.866;2023-04-25T01:02:50;99380.0;;;10.5;56.1
28456;BME280;15682;56.742;38.866;2023-04-25T01:04:50;99380.0;;;10.5;56.1
28456;BME280;15682;56.742;38.866;2023-04-25T01:06:51;99380.0;;;10.4;56.7
28456;BME280;15682;56.742;38.866;2023-04-25T01:08:51;99380.0;;;10.4;56.7
28456;BME280;15682;56.742;38.866;2023-04-25T01:10:50;99380.0;;;10.4;56.7
28456;BME280;15682;56.742;38.866;2023-04-25T01:12:51;99380.0;;;10.3;57.4
28456;BME280;15682;56.742;38.866;2023-04-25T01:14:51;99380.0;;;10.3;57.4
28456;BME280;15682;56.742;38.866;2023-04-25T01:16:51;99380.0;;;10.2;57.8
28456;BME280;15682;56.742;38.866;2023-04-25T01:18:51;99380.0;;;10.2;58.2
28456;BME280;15682;56.742;38.866;2023-04-25T01:20:52;99380.0;;;10.1;58.2
28456;BME280;15682;56.742;38.866;2023-04-25T01:22:52;99380.0;;;10.1;58.4
28456;BME280;15682;56.742;38.866;2023-04-25T01:24:52;99380.0;;;10.1;58.4
28456;BME280;15682;56.742;38.866;2023-04-25T01:26:52;99380.0;;;10.0;59.1
28456;BME280;15682;56.742;38.866;2023-04-25T01:28:52;99380.0;;;10.0;59.7
28456;BME280;15682;56.742;38.866;2023-04-25T01:30:52;99380.0;;;10.0;59.7
28456;BME280;15682;56.742;38.866;2023-04-25T01:32:54;99380.0;;;10.0;59.1
28456;BME280;15682;56.742;38.866;2023-04-25T01:34:52;99370.0;;;10.0;59.1
28456;BME280;15682;56.742;38.866;2023-04-25T01:36:53;99370.0;;;9.9;60.1
28456;BME280;15682;56.742;38.866;2023-04-25T01:38:52;99370.0;;;9.9;60.1
28456;BME280;15682;56.742;38.866;2023-04-25T01:40:53;99370.0;;;9.8;60.1
28456;BME280;15682;56.742;38.866;2023-04-25T01:42:53;99370.0;;;9.7;60.1
28456;BME280;15682;56.742;38.866;2023-04-25T01:44:53;99370.0;;;9.7;61.2
28456;BME280;15682;56.742;38.866;2023-04-25T01:46:53;99370.0;;;9.7;60.5
28456;BME280;15682;56.742;38.866;2023-04-25T01:48:53;99370.0;;;9.7;60.5
28456;BME280;15682;56.742;38.866;2023-04-25T01:50:53;99370.0;;;9.7;61.0
28456;BME280;15682;56.742;38.866;2023-04-25T01:52:54;99370.0;;;9.7;61.0
28456;BME280;15682;56.742;38.866;2023-04-25T01:54:54;99370.0;;;9.7;61.0
28456;BME280;15682;56.742;38.866;2023-04-25T01:56:57;99370.0;;;9.7;61.1
28456;BME280;15682;56.742;38.866;2023-04-25T01:58:54;99380.0;;;9.7;61.8
28456;BME280;15682;56.742;38.866;2023-04-25T02:00:54;99380.0;;;9.7;61.8
28456;BME280;15682;56.742;38.866;2023-04-25T02:02:57;99380.0;;;9.5;61.8
28456;BME280;15682;56.742;38.866;2023-04-25T02:04:54;99380.0;;;9.5;61.8
28456;BME280;15682;56.742;38.866;2023-04-25T02:06:54;99380.0;;;9.5;62.5
28456;BME280;15682;56.742;38.866;2023-04-25T02:08:54;99380.0;;;9.5;62.5
28456;BME280;15682;56.742;38.866;2023-04-25T02:10:54;99380.0;;;9.5;62.5
28456;BME280;15682;56.742;38.866;2023-04-25T02:12:55;99380.0;;;9.5;62.5
28456;BME280;15682;56.742;38.866;2023-04-25T02:14:55;99380.0;;;9.5;63.3
28456;BME280;15682;56.742;38.866;2023-04-25T02:16:55;99380.0;;;9.3;63.4
28456;BME280;15682;56.742;38.866;2023-04-25T02:18:55;99380.0;;;9.4;63.9
28456;BME280;15682;56.742;38.866;2023-04-25T02:20:55;99380.0;;;9.4;63.9
28456;BME280;15682;56.742;38.866;2023-04-25T02:22:55;99380.0;;;9.4;63.9
28456;BME280;15682;56.742;38.866;2023-04-25T02:24:55;99380.0;;;9.4;63.9
28456;BME280;15682;56.742;38.866;2023-04-25T02:26:56;99380.0;;;9.4;63.8
28456;BME280;15682;56.742;38.866;2023-04-25T02:28:56;99380.0;;;9.4;63.8
28456;BME280;15682;56.742;38.866;2023-04-25T02:30:56;99390.0;;;9.4;64.5
28456;BME280;15682;56.742;38.866;2023-04-25T02:32:56;99390.0;;;9.4;64.5
28456;BME280;15682;56.742;38.866;2023-04-25T02:34:56;99390.0;;;9.5;64.5
28456;BME280;15682;56.742;38.866;2023-04-25T02:36:56;99390.0;;;9.5;64.2
28456;BME280;15682;56.742;38.866;2023-04-25T02:38:56;99390.0;;;9.5;64.2
28456;BME280;15682;56.742;38.866;2023-04-25T02:40:56;99390.0;;;9.7;64.0
28456;BME280;15682;56.742;38.866;2023-04-25T02:42:57;99390.0;;;9.7;64.0
28456;BME280;15682;56.742;38.866;2023-04-25T02:44:57;99390.0;;;9.7;64.0
28456;BME280;15682;56.742;38.866;2023-04-25T02:46:57;99390.0;;;9.8;63.9
28456;BME280;15682;56.742;38.866;2023-04-25T02:48:57;99390.0;;;9.8;63.9
28456;BME280;15682;56.742;38.866;2023-04-25T02:50:57;99390.0;;;9.8;63.9
28456;BME280;15682;56.742;38.866;2023-04-25T02:52:57;99390.0;;;9.8;63.9
28456;BME280;15682;56.742;38.866;2023-04-25T02:54:57;99390.0;;;9.8;64.6
28456;BME280;15682;56.742;38.866;2023-04-25T02:56:58;99390.0;;;9.7;65.2
28456;BME280;15682;56.742;38.866;2023-04-25T02:58:58;99390.0;;;9.7;65.2
28456;BME280;15682;56.742;38.866;2023-04-25T03:00:58;99390.0;;;9.7;65.2
28456;BME280;15682;56.742;38.866;2023-04-25T03:02:58;99390.0;;;9.7;65.2
28456;BME280;15682;56.742;38.866;2023-04-25T03:04:58;99400.0;;;10.0;65.2
28456;BME280;15682;56.742;38.866;2023-04-25T03:06:59;99400.0;;;10.0;64.9
28456;BME280;15682;56.742;38.866;2023-04-25T03:08:58;99400.0;;;10.1;64.9
28456;BME280;15682;56.742;38.866;2023-04-25T03:10:59;99400.0;;;10.1;64.9
28456;BME280;15682;56.742;38.866;2023-04-25T03:12:59;99400.0;;;10.2;64.6
28456;BME280;15682;56.742;38.866;2023-04-25T03:14:59;99400.0;;;10.2;64.6
28456;BME280;15682;56.742;38.866;2023-04-25T03:16:59;99400.0;;;10.4;64.4
28456;BME280;15682;56.742;38.866;2023-04-25T03:18:59;99400.0;;;10.4;64.4
28456;BME280;15682;56.742;38.866;2023-04-25T03:20:59;99400.0;;;10.4;64.4
28456;BME280;15682;56.742;38.866;2023-04-25T03:22:59;99400.0;;;10.4;64.4
28456;BME280;15682;56.742;38.866;2023-04-25T03:25:00;99400.0;;;10.5;64.4
28456;BME280;15682;56.742;38.866;2023-04-25T03:27:00;99400.0;;;10.6;64.8
28456;BME280;15682;56.742;38.866;2023-04-25T03:29:00;99400.0;;;10.6;64.8
28456;BME280;15682;56.742;38.866;2023-04-25T03:31:00;99400.0;;;10.6;64.8
28456;BME280;15682;56.742;38.866;2023-04-25T03:33:00;99400.0;;;10.6;64.8
28456;BME280;15682;56.742;38.866;2023-04-25T03:35:01;99400.0;;;10.8;64.8
28456;BME280;15682;56.742;38.866;2023-04-25T03:37:00;99400.0;;;10.9;64.4
28456;BME280;15682;56.742;38.866;2023-04-25T03:39:01;99400.0;;;10.9;64.4
28456;BME280;15682;56.742;38.866;2023-04-25T03:41:01;99400.0;;;10.9;64.4
28456;BME280;15682;56.742;38.866;2023-04-25T03:43:01;99400.0;;;10.7;64.4
28456;BME280;15682;56.742;38.866;2023-04-25T03:45:01;99400.0;;;10.7;64.4
28456;BME280;15682;56.742;38.866;2023-04-25T03:47:01;99400.0;;;10.6;65.3
28456;BME280;15682;56.742;38.866;2023-04-25T03:49:01;99400.0;;;10.6;65.3
28456;BME280;15682;56.742;38.866;2023-04-25T03:51:02;99410.0;;;10.6;65.3
28456;BME280;15682;56.742;38.866;2023-04-25T03:53:02;99410.0;;;10.6;65.3
28456;BME280;15682;56.742;38.866;2023-04-25T03:55:02;99410.0;;;10.6;65.3
28456;BME280;15682;56.742;38.866;2023-04-25T03:57:02;99410.0;;;10.8;65.3
28456;BME280;15682;56.742;38.866;2023-04-25T03:59:02;99410.0;;;10.8;65.3
28456;BME280;15682;56.742;38.866;2023-04-25T04:01:02;99410.0;;;10.8;65.3
28456;BME280;15682;56.742;38.866;2023-04-25T04:03:02;99410.0;;;11.0;65.3
28456;BME280;15682;56.742;38.866;2023-04-25T04:05:03;99410.0;;;11.1;64.6
28456;BME280;15682;56.742;38.866;2023-04-25T04:07:03;99410.0;;;11.3;64.4
28456;BME280;15682;56.742;38.866;2023-04-25T04:09:03;99410.0;;;11.6;64.7
28456;BME280;15682;56.742;38.866;2023-04-25T04:11:03;99410.0;;;11.6;63.5
28456;BME280;15682;56.742;38.866;2023-04-25T04:13:03;99410.0;;;11.6;63.5
28456;BME280;15682;56.742;38.866;2023-04-25T04:15:05;99410.0;;;11.3;63.5
28456;BME280;15682;56.742;38.866;2023-04-25T04:17:04;99410.0;;;11.4;64.3
28456;BME280;15682;56.742;38.866;2023-04-25T04:19:04;99410.0;;;11.3;64.3
28456;BME280;15682;56.742;38.866;2023-04-25T04:21:04;99410.0;;;11.3;64.3
28456;BME280;15682;56.742;38.866;2023-04-25T04:23:04;99410.0;;;11.3;64.8
28456;BME280;15682;56.742;38.866;2023-04-25T04:25:06;99410.0;;;11.3;64.8
28456;BME280;15682;56.742;38.866;2023-04-25T04:27:04;99410.0;;;11.4;64.9
28456;BME280;15682;56.742;38.866;2023-04-25T04:29:04;99410.0;;;11.6;64.9
28456;BME280;15682;56.742;38.866;2023-04-25T04:31:05;99410.0;;;11.6;64.0
28456;BME280;15682;56.742;38.866;2023-04-25T04:33:05;99410.0;;;11.6;64.0
28456;BME280;15682;56.742;38.866;2023-04-25T04:35:06;99420.0;;;11.8;64.0
28456;BME280;15682;56.742;38.866;2023-04-25T04:37:05;99420.0;;;12.0;63.5
28456;BME280;15682;56.742;38.866;2023-04-25T04:39:06;99420.0;;;12.0;63.5
28456;BME280;15682;56.742;38.866;2023-04-25T04:41:06;99420.0;;;12.1;63.5
28456;BME280;15682;56.742;38.866;2023-04-25T04:43:06;99420.0;;;12.1;63.5
28456;BME280;15682;56.742;38.866;2023-04-25T04:45:07;99420.0;;;12.3;63.5
28456;BME280;15682;56.742;38.866;2023-04-25T04:47:06;99420.0;;;12.5;62.9
28456;BME280;15682;56.742;38.866;2023-04-25T04:49:06;99420.0;;;12.5;62.1
28456;BME280;15682;56.742;38.866;2023-04-25T04:51:07;99420.0;;;12.6;62.1
28456;BME280;15682;56.742;38.866;2023-04-25T04:53:07;99420.0;;;12.6;61.3
28456;BME280;15682;56.742;38.866;2023-04-25T04:55:08;99420.0;;;12.6;61.3
28456;BME280;15682;56.742;38.866;2023-04-25T04:57:07;99420.0;;;13.0;58.4
28456;BME280;15682;56.742;38.866;2023-04-25T04:59:07;99410.0;;;13.1;57.3
28456;BME280;15682;56.742;38.866;2023-04-25T05:01:07;99410.0;;;13.5;57.3
28456;BME280;15682;56.742;38.866;2023-04-25T05:03:08;99410.0;;;14.0;56.1
28456;BME280;15682;56.742;38.866;2023-04-25T05:05:08;99410.0;;;14.0;53.8
28456;BME280;15682;56.742;38.866;2023-04-25T05:07:08;99410.0;;;14.6;53.0
28456;BME280;15682;56.742;38.866;2023-04-25T05:09:09;99400.0;;;14.8;52.1
28456;BME280;15682;56.742;38.866;2023-04-25T05:11:09;99400.0;;;14.9;53.2
28456;BME280;15682;56.742;38.866;2023-04-25T05:13:09;99390.0;;;15.1;50.9
28456;BME280;15682;56.742;38.866;2023-04-25T05:15:10;99390.0;;;15.3;51.5
28456;BME280;15682;56.742;38.866;2023-04-25T05:17:10;99390.0;;;15.5;51.0
28456;BME280;15682;56.742;38.866;2023-04-25T05:19:11;99390.0;;;15.7;50.3
28456;BME280;15682;56.742;38.866;2023-04-25T05:21:11;99390.0;;;16.0;48.1
28456;BME280;15682;56.742;38.866;2023-04-25T05:23:12;99390.0;;;16.3;48.3
28456;BME280;15682;56.742;38.866;2023-04-25T05:25:12;99390.0;;;16.4;47.0
28456;BME280;15682;56.742;38.866;2023-04-25T05:27:13;99390.0;;;16.5;49.2
28456;BME280;15682;56.742;38.866;2023-04-25T05:29:13;99390.0;;;16.5;49.2
28456;BME280;15682;56.742;38.866;2023-04-25T05:31:14;99390.0;;;15.8;50.9
28456;BME280;15682;56.742;38.866;2023-04-25T05:33:15;99390.0;;;15.6;51.7
28456;BME280;15682;56.742;38.866;2023-04-25T05:35:15;99390.0;;;15.4;51.1
28456;BME280;15682;56.742;38.866;2023-04-25T05:37:16;99390.0;;;15.3;52.1
28456;BME280;15682;56.742;38.866;2023-04-25T05:39:16;99390.0;;;15.3;52.6
28456;BME280;15682;56.742;38.866;2023-04-25T05:41:17;99390.0;;;15.3;51.9
28456;BME280;15682;56.742;38.866;2023-04-25T05:43:17;99390.0;;;15.3;52.6
28456;BME280;15682;56.742;38.866;2023-04-25T05:45:18;99390.0;;;15.3;52.6
28456;BME280;15682;56.742;38.866;2023-04-25T05:47:19;99390.0;;;15.2;52.6
28456;BME280;15682;56.742;38.866;2023-04-25T05:49:19;99390.0;;;15.4;53.2
28456;BME280;15682;56.742;38.866;2023-04-25T05:51:19;99390.0;;;15.4;52.3
28456;BME280;15682;56.742;38.866;2023-04-25T05:53:20;99390.0;;;15.4;52.6
28456;BME280;15682;56.742;38.866;2023-04-25T05:55:21;99390.0;;;15.4;53.0
28456;BME280;15682;56.742;38.866;2023-04-25T05:57:23;99390.0;;;15.6;53.0
28456;BME280;15682;56.742;38.866;2023-04-25T05:59:22;99380.0;;;15.6;50.9
28456;BME280;15682;56.742;38.866;2023-04-25T06:01:23;99380.0;;;15.8;50.9
28456;BME280;15682;56.742;38.866;2023-04-25T06:03:23;99380.0;;;15.9;51.1
28456;BME280;15682;56.742;38.866;2023-04-25T06:05:23;99380.0;;;16.1;49.7
28456;BME280;15682;56.742;38.866;2023-04-25T06:07:24;99380.0;;;16.3;48.1
28456;BME280;15682;56.742;38.866;2023-04-25T06:09:25;99380.0;;;16.3;48.1
28456;BME280;15682;56.742;38.866;2023-04-25T06:11:25;99380.0;;;16.5;48.3
28456;BME280;15682;56.742;38.866;2023-04-25T06:13:26;99380.0;;;16.5;46.1
28456;BME280;15682;56.742;38.866;2023-04-25T06:15:26;99370.0;;;16.6;47.6
28456;BME280;15682;56.742;38.866;2023-04-25T06:17:27;99370.0;;;16.6;47.4
28456;BME280;15682;56.742;38.866;2023-04-25T06:19:27;99370.0;;;16.8;46.9
28456;BME280;15682;56.742;38.866;2023-04-25T06:21:28;99370.0;;;16.8;47.5
28456;BME280;15682;56.742;38.866;2023-04-25T06:23:29;99370.0;;;17.0;47.2
28456;BME280;15682;56.742;38.866;2023-04-25T06:25:29;99360.0;;;17.0;45.5
28456;BME280;15682;56.742;38.866;2023-04-25T06:27:30;99360.0;;;16.9;47.8
28456;BME280;15682;56.742;38.866;2023-04-25T06:29:31;99360.0;;;16.9;45.9
28456;BME280;15682;56.742;38.866;2023-04-25T06:31:31;99360.0;;;17.1;46.1
28456;BME280;15682;56.742;38.866;2023-04-25T06:33:32;99360.0;;;17.2;45.8
28456;BME280;15682;56.742;38.866;2023-04-25T06:35:32;99360.0;;;17.4;45.4
28456;BME280;15682;56.742;38.866;2023-04-25T06:37:33;99360.0;;;17.4;44.3
28456;BME280;15682;56.742;38.866;2023-04-25T06:39:34;99360.0;;;17.7;44.3
28456;BME280;15682;56.742;38.866;2023-04-25T06:41:34;99360.0;;;17.7;42.3
28456;BME280;15682;56.742;38.866;2023-04-25T06:43:35;99360.0;;;17.5;44.0
28456;BME280;15682;56.742;38.866;2023-04-25T06:45:35;99360.0;;;17.6;43.3
28456;BME280;15682;56.742;38.866;2023-04-25T06:47:37;99360.0;;;17.6;42.6
28456;BME280;15682;56.742;38.866;2023-04-25T06:49:37;99360.0;;;17.8;43.5
28456;BME280;15682;56.742;38.866;2023-04-25T06:51:37;99360.0;;;17.8;43.5
28456;BME280;15682;56.742;38.866;2023-04-25T06:53:38;99360.0;;;18.1;42.5
28456;BME280;15682;56.742;38.866;2023-04-25T06:55:39;99360.0;;;17.9;42.5
28456;BME280;15682;56.742;38.866;2023-04-25T06:57:39;99360.0;;;17.9;41.7
28456;BME280;15682;56.742;38.866;2023-04-25T06:59:40;99350.0;;;18.0;42.7
28456;BME280;15682;56.742;38.866;2023-04-25T07:01:41;99350.0;;;18.2;42.1
28456;BME280;15682;56.742;38.866;2023-04-25T07:03:41;99350.0;;;18.0;41.2
28456;BME280;15682;56.742;38.866;2023-04-25T07:05:42;99340.0;;;18.1;41.2
28456;BME280;15682;56.742;38.866;2023-04-25T07:07:43;99340.0;;;18.2;39.6
28456;BME280;15682;56.742;38.866;2023-04-25T07:09:43;99340.0;;;18.0;41.4
28456;BME280;15682;56.742;38.866;2023-04-25T07:11:44;99340.0;;;18.3;39.4
28456;BME280;15682;56.742;38.866;2023-04-25T07:13:45;99340.0;;;18.3;39.1
28456;BME280;15682;56.742;38.866;2023-04-25T07:15:45;99340.0;;;18.4;41.1
28456;BME280;15682;56.742;38.866;2023-04-25T07:17:46;99340.0;;;18.5;39.7
28456;BME280;15682;56.742;38.866;2023-04-25T07:19:46;99330.0;;;18.6;39.2
28456;BME280;15682;56.742;38.866;2023-04-25T07:21:47;99330.0;;;18.8;39.7
28456;BME280;15682;56.742;38.866;2023-04-25T07:23:48;99330.0;;;18.8;39.7
28456;BME280;15682;56.742;38.866;2023-04-25T07:25:48;99330.0;;;18.7;38.3
28456;BME280;15682;56.742;38.866;2023-04-25T07:27:49;99330.0;;;18.8;38.1
28456;BME280;15682;56.742;38.866;2023-04-25T07:29:49;99330.0;;;18.8;38.1
28456;BME280;15682;56.742;38.866;2023-04-25T07:31:50;99330.0;;;19.0;37.9
28456;BME280;15682;56.742;38.866;2023-04-25T07:33:50;99330.0;;;18.8;37.2
28456;BME280;15682;56.742;38.866;2023-04-25T07:35:51;99330.0;;;18.8;37.5
28456;BME280;15682;56.742;38.866;2023-04-25T07:37:51;99330.0;;;19.1;37.5
28456;BME280;15682;56.742;38.866;2023-04-25T07:39:51;99330.0;;;19.1;37.5
28456;BME280;15682;56.742;38.866;2023-04-25T07:41:52;99330.0;;;19.0;37.5
28456;BME280;15682;56.742;38.866;2023-04-25T07:43:52;99330.0;;;19.3;37.9
28456;BME280;15682;56.742;38.866;2023-04-25T07:45:53;99330.0;;;19.3;36.1
28456;BME280;15682;56.742;38.866;2023-04-25T07:47:54;99330.0;;;19.4;36.1
28456;BME280;15682;56.742;38.866;2023-04-25T07:49:54;99330.0;;;19.4;36.1
28456;BME280;15682;56.742;38.866;2023-04-25T07:51:54;99330.0;;;19.4;36.1
28456;BME280;15682;56.742;38.866;2023-04-25T07:53:55;99330.0;;;19.4;37.1
28456;BME280;15682;56.742;38.866;2023-04-25T07:55:55;99330.0;;;19.8;35.7
28456;BME280;15682;56.742;38.866;2023-04-25T07:57:56;99340.0;;;19.8;36.6
28456;BME280;15682;56.742;38.866;2023-04-25T07:59:56;99340.0;;;19.9;37.2
28456;BME280;15682;56.742;38.866;2023-04-25T08:01:56;99340.0;;;20.1;37.2
28456;BME280;15682;56.742;38.866;2023-04-25T08:03:57;99340.0;;;20.3;37.2
28456;BME280;15682;56.742;38.866;2023-04-25T08:05:57;99340.0;;;20.0;36.9
28456;BME280;15682;56.742;38.866;2023-04-25T08:07:58;99340.0;;;20.0;37.4
28456;BME280;15682;56.742;38.866;2023-04-25T08:09:58;99340.0;;;20.0;36.8
28456;BME280;15682;56.742;38.866;2023-04-25T08:11:58;99340.0;;;20.2;37.8
28456;BME280;15682;56.742;38.866;2023-04-25T08:13:59;99340.0;;;20.3;37.8
28456;BME280;15682;56.742;38.866;2023-04-25T08:15:59;99340.0;;;20.6;36.7
28456;BME280;15682;56.742;38.866;2023-04-25T08:18:00;99340.0;;;20.6;36.7
28456;BME280;15682;56.742;38.866;2023-04-25T08:20:00;99340.0;;;20.6;36.7
28456;BME280;15682;56.742;38.866;2023-04-25T08:22:01;99340.0;;;20.8;36.0
28456;BME280;15682;56.742;38.866;2023-04-25T08:24:01;99340.0;;;20.5;36.0
28456;BME280;15682;56.742;38.866;2023-04-25T08:26:02;99340.0;;;20.5;37.2
28456;BME280;15682;56.742;38.866;2023-04-25T08:28:02;99340.0;;;20.5;37.2
28456;BME280;15682;56.742;38.866;2023-04-25T08:30:02;99340.0;;;20.5;37.2
28456;BME280;15682;56.742;38.866;2023-04-25T08:32:03;99340.0;;;20.4;38.3
28456;BME280;15682;56.742;38.866;2023-04-25T08:34:03;99340.0;;;20.4;38.8
28456;BME280;15682;56.742;38.866;2023-04-25T08:36:04;99340.0;;;20.4;39.3
28456;BME280;15682;56.742;38.866;2023-04-25T08:38:04;99340.0;;;20.8;38.3
28456;BME280;15682;56.742;38.866;2023-04-25T08:40:06;99320.0;;;21.2;37.6
28456;BME280;15682;56.742;38.866;2023-04-25T08:42:06;99320.0;;;21.0;37.0
28456;BME280;15682;56.742;38.866;2023-04-25T08:44:05;99320.0;;;21.1;37.0
28456;BME280;15682;56.742;38.866;2023-04-25T08:46:06;99320.0;;;21.2;37.5
28456;BME280;15682;56.742;38.866;2023-04-25T08:48:07;99320.0;;;21.1;37.5
28456;BME280;15682;56.742;38.866;2023-04-25T08:50:07;99320.0;;;20.8;38.0
28456;BME280;15682;56.742;38.866;2023-04-25T08:52:07;99320.0;;;21.3;38.7
28456;BME280;15682;56.742;38.866;2023-04-25T08:54:09;99320.0;;;21.7;38.7
28456;BME280;15682;56.742;38.866;2023-04-25T08:56:07;99320.0;;;21.6;38.2
28456;BME280;15682;56.742;38.866;2023-04-25T08:58:09;99320.0;;;20.5;40.2
28456;BME280;15682;56.742;38.866;2023-04-25T09:00:09;99320.0;;;20.1;40.9
28456;BME280;15682;56.742;38.866;2023-04-25T09:02:09;99320.0;;;19.9;40.9
28456;BME280;15682;56.742;38.866;2023-04-25T09:04:09;99320.0;;;19.7;41.4
28456;BME280;15682;56.742;38.866;2023-04-25T09:06:10;99320.0;;;19.8;41.6
28456;BME280;15682;56.742;38.866;2023-04-25T09:08:10;99310.0;;;20.3;40.4
28456;BME280;15682;56.742;38.866;2023-04-25T09:10:10;99310.0;;;21.0;40.4
28456;BME280;15682;56.742;38.866;2023-04-25T09:12:11;99310.0;;;21.3;39.9
28456;BME280;15682;56.742;38.866;2023-04-25T09:14:13;99310.0;;;21.0;40.0
28456;BME280;15682;56.742;38.866;2023-04-25T09:16:11;99310.0;;;20.9;41.2
28456;BME280;15682;56.742;38.866;2023-04-25T09:18:12;99310.0;;;20.9;41.2
28456;BME280;15682;56.742;38.866;2023-04-25T09:20:13;99310.0;;;20.9;41.2
28456;BME280;15682;56.742;38.866;2023-04-25T09:22:13;99310.0;;;21.1;41.2
28456;BME280;15682;56.742;38.866;2023-04-25T09:24:13;99300.0;;;20.6;41.2
28456;BME280;15682;56.742;38.866;2023-04-25T09:26:14;99300.0;;;20.7;41.3
28456;BME280;15682;56.742;38.866;2023-04-25T09:28:14;99300.0;;;20.8;40.3
28456;BME280;15682;56.742;38.866;2023-04-25T09:30:16;99300.0;;;21.2;40.3
28456;BME280;15682;56.742;38.866;2023-04-25T09:32:17;99280.0;;;21.2;38.4
28456;BME280;15682;56.742;38.866;2023-04-25T09:34:15;99280.0;;;21.2;39.0
28456;BME280;15682;56.742;38.866;2023-04-25T09:36:15;99280.0;;;21.3;39.1
28456;BME280;15682;56.742;38.866;2023-04-25T09:38:18;99280.0;;;20.3;39.1
28456;BME280;15682;56.742;38.866;2023-04-25T09:40:18;99280.0;;;19.8;40.1
28456;BME280;15682;56.742;38.866;2023-04-25T09:42:17;99280.0;;;19.6;41.2
28456;BME280;15682;56.742;38.866;2023-04-25T09:44:23;99280.0;;;19.6;41.8
28456;BME280;15682;56.742;38.866;2023-04-25T09:46:17;99280.0;;;19.5;41.7
28456;BME280;15682;56.742;38.866;2023-04-25T09:48:19;99280.0;;;19.7;41.3
28456;BME280;15682;56.742;38.866;2023-04-25T09:50:18;99280.0;;;20.3;40.0
28456;BME280;15682;56.742;38.866;2023-04-25T09:52:20;99280.0;;;20.7;39.4
28456;BME280;15682;56.742;38.866;2023-04-25T09:54:19;99280.0;;;20.7;40.0
28456;BME280;15682;56.742;38.866;2023-04-25T09:56:20;99280.0;;;20.9;39.2
28456;BME280;15682;56.742;38.866;2023-04-25T09:58:20;99270.0;;;20.6;39.7
28456;BME280;15682;56.742;38.866;2023-04-25T10:00:21;99270.0;;;20.6;40.6
28456;BME280;15682;56.742;38.866;2023-04-25T10:02:21;99270.0;;;20.4;40.0
28456;BME280;15682;56.742;38.866;2023-04-25T10:04:24;99270.0;;;20.3;40.0
28456;BME280;15682;56.742;38.866;2023-04-25T10:06:23;99270.0;;;20.3;40.2
28456;BME280;15682;56.742;38.866;2023-04-25T10:08:22;99270.0;;;20.1;40.2
28456;BME280;15682;56.742;38.866;2023-04-25T10:10:23;99270.0;;;20.1;40.2
28456;BME280;15682;56.742;38.866;2023-04-25T10:12:23;99270.0;;;20.8;40.2
28456;BME280;15682;56.742;38.866;2023-04-25T10:14:23;99270.0;;;20.7;40.2
28456;BME280;15682;56.742;38.866;2023-04-25T10:16:24;99270.0;;;20.3;39.7
28456;BME280;15682;56.742;38.866;2023-04-25T10:18:25;99270.0;;;20.1;40.6
28456;BME280;15682;56.742;38.866;2023-04-25T10:20:24;99270.0;;;20.0;40.6
28456;BME280;15682;56.742;38.866;2023-04-25T10:22:30;99260.0;;;19.8;41.4
28456;BME280;15682;56.742;38.866;2023-04-25T10:24:25;99260.0;;;19.8;41.6
28456;BME280;15682;56.742;38.866;2023-04-25T10:26:25;99260.0;;;19.7;41.9
28456;BME280;15682;56.742;38.866;2023-04-25T10:28:26;99260.0;;;19.5;41.9
28456;BME280;15682;56.742;38.866;2023-04-25T10:30:26;99260.0;;;19.4;41.9
28456;BME280;15682;56.742;38.866;2023-04-25T10:32:26;99260.0;;;19.4;41.9
28456;BME280;15682;56.742;38.866;2023-04-25T10:34:38;99260.0;;;19.4;41.9
28456;BME280;15682;56.742;38.866;2023-04-25T10:36:31;99260.0;;;19.6;41.8
28456;BME280;15682;56.742;38.866;2023-04-25T10:38:27;99260.0;;;19.8;41.8
28456;BME280;15682;56.742;38.866;2023-04-25T10:40:28;99260.0;;;19.8;40.9
28456;BME280;15682;56.742;38.866;2023-04-25T10:42:29;99260.0;;;20.3;39.9
28456;BME280;15682;56.742;38.866;2023-04-25T10:44:29;99250.0;;;20.3;39.0
28456;BME280;15682;56.742;38.866;2023-04-25T10:46:29;99250.0;;;20.4;38.8
28456;BME280;15682;56.742;38.866;2023-04-25T10:48:30;99240.0;;;20.9;39.6
28456;BME280;15682;56.742;38.866;2023-04-25T10:50:38;99230.0;;;21.1;38.9
28456;BME280;15682;56.742;38.866;2023-04-25T10:52:32;99230.0;;;21.1;37.3
28456;BME280;15682;56.742;38.866;2023-04-25T10:54:30;99230.0;;;21.1;37.3